Search for airport 
image banner adimage banner ad
image banner ad

SVHC - Caribe

Located in Maiquetia, Venezuela

ICAO - SVHC, IATA -

Data provided by Airmate  

General information

Coordinates: N10°35'55" W66°59'48"
Elevation is 138 feet MSL.
 
View others Airports in Zulia

Operational data

Open for public use
Current time UTC:
Current local time:
METAR: SVMI 310402Z AUTO 07001KT NCD ///// Q1012
TAF: TAF SVMI 302200Z 3100/0100 09015KT 9999 SCT016 TX33/3118Z TN22/3118Z BECMG 3100/3104 02006KT 8000 DZ BKN016
View NOTAMs / SUP AIP / TFR affecting this airport [VIEW]
Communications frequencies: [VIEW]

Runways:

Airport contact information

Address: Maiquetia Venezuela

Satellite view of SVHC